sensor_id;sensor_type;location;lat;lon;timestamp;pressure;altitude;pressure_sealevel;temperature;humidity
7532;BME280;3807;49.030;8.714;2023-04-10T00:00:29;99918.22;;;12.74;48.99
7532;BME280;3807;49.030;8.714;2023-04-10T00:02:56;99921.62;;;12.75;48.86
7532;BME280;3807;49.030;8.714;2023-04-10T00:05:22;99921.25;;;12.60;49.24
7532;BME280;3807;49.030;8.714;2023-04-10T00:07:47;99912.00;;;12.56;49.30
7532;BME280;3807;49.030;8.714;2023-04-10T00:10:13;99917.87;;;12.58;49.37
7532;BME280;3807;49.030;8.714;2023-04-10T00:12:38;99914.56;;;12.56;49.52
7532;BME280;3807;49.030;8.714;2023-04-10T00:15:04;99914.75;;;12.50;49.30
7532;BME280;3807;49.030;8.714;2023-04-10T00:17:29;99910.66;;;12.45;49.45
7532;BME280;3807;49.030;8.714;2023-04-10T00:19:55;99904.81;;;12.41;49.80
7532;BME280;3807;49.030;8.714;2023-04-10T00:22:20;99904.50;;;12.52;49.13
7532;BME280;3807;49.030;8.714;2023-04-10T00:24:45;99896.94;;;12.49;49.30
7532;BME280;3807;49.030;8.714;2023-04-10T00:27:11;99899.69;;;12.41;49.14
7532;BME280;3807;49.030;8.714;2023-04-10T00:29:36;99897.47;;;12.32;49.46
7532;BME280;3807;49.030;8.714;2023-04-10T00:32:01;99892.69;;;12.21;49.88
7532;BME280;3807;49.030;8.714;2023-04-10T00:34:27;99898.88;;;12.40;49.56
7532;BME280;3807;49.030;8.714;2023-04-10T00:36:52;99891.97;;;12.16;49.83
7532;BME280;3807;49.030;8.714;2023-04-10T00:39:18;99888.31;;;12.25;49.78
7532;BME280;3807;49.030;8.714;2023-04-10T00:41:43;99889.59;;;12.38;49.22
7532;BME280;3807;49.030;8.714;2023-04-10T00:44:09;99899.19;;;12.31;49.43
7532;BME280;3807;49.030;8.714;2023-04-10T00:46:36;99900.75;;;12.35;49.08
7532;BME280;3807;49.030;8.714;2023-04-10T00:49:02;99899.94;;;12.33;49.12
7532;BME280;3807;49.030;8.714;2023-04-10T00:51:28;99906.00;;;12.31;48.80
7532;BME280;3807;49.030;8.714;2023-04-10T00:53:53;99905.16;;;12.30;49.16
7532;BME280;3807;49.030;8.714;2023-04-10T00:56:20;99906.22;;;12.23;49.32
7532;BME280;3807;49.030;8.714;2023-04-10T00:58:46;99905.44;;;12.21;49.33
7532;BME280;3807;49.030;8.714;2023-04-10T01:01:12;99899.78;;;12.11;49.33
7532;BME280;3807;49.030;8.714;2023-04-10T01:03:38;99902.41;;;12.10;49.55
7532;BME280;3807;49.030;8.714;2023-04-10T01:06:17;99903.81;;;12.19;48.91
7532;BME280;3807;49.030;8.714;2023-04-10T01:11:53;99903.44;;;12.03;49.78
7532;BME280;3807;49.030;8.714;2023-04-10T01:14:29;99918.88;;;12.00;49.73
7532;BME280;3807;49.030;8.714;2023-04-10T01:17:12;99912.16;;;11.96;49.95
7532;BME280;3807;49.030;8.714;2023-04-10T01:19:57;99908.03;;;11.91;49.92
7532;BME280;3807;49.030;8.714;2023-04-10T01:25:25;99902.28;;;11.83;49.99
7532;BME280;3807;49.030;8.714;2023-04-10T01:28:10;99895.53;;;11.82;50.11
7532;BME280;3807;49.030;8.714;2023-04-10T01:30:41;99898.78;;;11.89;49.95
7532;BME280;3807;49.030;8.714;2023-04-10T01:33:11;99899.00;;;11.80;50.12
7532;BME280;3807;49.030;8.714;2023-04-10T01:35:40;99904.25;;;11.75;50.21
7532;BME280;3807;49.030;8.714;2023-04-10T01:38:07;99906.81;;;11.74;50.19
7532;BME280;3807;49.030;8.714;2023-04-10T01:40:37;99911.16;;;11.72;50.26
7532;BME280;3807;49.030;8.714;2023-04-10T01:43:05;99916.34;;;11.68;50.38
7532;BME280;3807;49.030;8.714;2023-04-10T01:45:32;99917.91;;;11.73;50.20
7532;BME280;3807;49.030;8.714;2023-04-10T01:47:58;99918.22;;;11.93;49.86
7532;BME280;3807;49.030;8.714;2023-04-10T01:50:25;99912.16;;;11.64;50.36
7532;BME280;3807;49.030;8.714;2023-04-10T01:52:53;99913.22;;;11.57;50.69
7532;BME280;3807;49.030;8.714;2023-04-10T01:55:23;99910.69;;;11.57;50.74
7532;BME280;3807;49.030;8.714;2023-04-10T01:57:49;99915.63;;;11.63;50.18
7532;BME280;3807;49.030;8.714;2023-04-10T02:00:15;99909.22;;;11.49;50.96
7532;BME280;3807;49.030;8.714;2023-04-10T02:02:41;99909.91;;;11.55;50.60
7532;BME280;3807;49.030;8.714;2023-04-10T02:05:08;99915.38;;;11.41;50.77
7532;BME280;3807;49.030;8.714;2023-04-10T02:10:12;99912.03;;;11.39;51.05
7532;BME280;3807;49.030;8.714;2023-04-10T02:12:52;99917.03;;;11.42;50.73
7532;BME280;3807;49.030;8.714;2023-04-10T02:15:21;99911.19;;;11.39;50.75
7532;BME280;3807;49.030;8.714;2023-04-10T02:17:48;99908.69;;;11.37;50.75
7532;BME280;3807;49.030;8.714;2023-04-10T02:20:14;99905.31;;;11.37;50.74
7532;BME280;3807;49.030;8.714;2023-04-10T02:22:41;99916.56;;;11.30;51.11
7532;BME280;3807;49.030;8.714;2023-04-10T02:25:10;99912.28;;;11.30;50.80
7532;BME280;3807;49.030;8.714;2023-04-10T02:27:36;99907.44;;;11.21;51.03
7532;BME280;3807;49.030;8.714;2023-04-10T02:30:03;99905.72;;;11.21;50.96
7532;BME280;3807;49.030;8.714;2023-04-10T02:32:29;99905.03;;;11.15;51.13
7532;BME280;3807;49.030;8.714;2023-04-10T02:34:55;99901.50;;;11.20;50.84
7532;BME280;3807;49.030;8.714;2023-04-10T02:37:21;99907.66;;;11.12;51.32
7532;BME280;3807;49.030;8.714;2023-04-10T02:39:47;99904.06;;;11.19;50.91
7532;BME280;3807;49.030;8.714;2023-04-10T02:42:12;99898.19;;;11.17;51.17
7532;BME280;3807;49.030;8.714;2023-04-10T02:44:37;99897.38;;;11.16;50.86
7532;BME280;3807;49.030;8.714;2023-04-10T02:47:06;99896.00;;;11.03;51.33
7532;BME280;3807;49.030;8.714;2023-04-10T02:49:32;99905.47;;;10.98;51.55
7532;BME280;3807;49.030;8.714;2023-04-10T02:51:59;99896.09;;;11.00;51.40
7532;BME280;3807;49.030;8.714;2023-04-10T02:54:24;99897.03;;;10.96;51.48
7532;BME280;3807;49.030;8.714;2023-04-10T02:56:50;99900.56;;;10.92;51.37
7532;BME280;3807;49.030;8.714;2023-04-10T02:59:15;99888.78;;;10.88;51.85
7532;BME280;3807;49.030;8.714;2023-04-10T03:01:41;99895.63;;;10.84;51.48
7532;BME280;3807;49.030;8.714;2023-04-10T03:04:07;99898.28;;;10.81;51.57
7532;BME280;3807;49.030;8.714;2023-04-10T03:06:32;99902.50;;;10.81;51.65
7532;BME280;3807;49.030;8.714;2023-04-10T03:08:58;99897.41;;;10.82;51.50
7532;BME280;3807;49.030;8.714;2023-04-10T03:11:23;99892.41;;;10.78;51.61
7532;BME280;3807;49.030;8.714;2023-04-10T03:13:49;99894.84;;;10.82;51.33
7532;BME280;3807;49.030;8.714;2023-04-10T03:16:15;99892.31;;;10.81;51.25
7532;BME280;3807;49.030;8.714;2023-04-10T03:18:41;99892.06;;;10.91;50.99
7532;BME280;3807;49.030;8.714;2023-04-10T03:21:07;99888.19;;;10.77;51.20
7532;BME280;3807;49.030;8.714;2023-04-10T03:23:32;99887.59;;;10.67;51.57
7532;BME280;3807;49.030;8.714;2023-04-10T03:25:58;99885.13;;;10.62;51.54
7532;BME280;3807;49.030;8.714;2023-04-10T03:28:23;99880.66;;;10.72;51.77
7532;BME280;3807;49.030;8.714;2023-04-10T03:30:51;99876.41;;;10.72;51.49
7532;BME280;3807;49.030;8.714;2023-04-10T03:33:16;99883.25;;;10.70;51.27
7532;BME280;3807;49.030;8.714;2023-04-10T03:35:41;99877.75;;;10.52;51.94
7532;BME280;3807;49.030;8.714;2023-04-10T03:38:07;99869.97;;;10.58;51.92
7532;BME280;3807;49.030;8.714;2023-04-10T03:40:33;99876.66;;;10.62;51.59
7532;BME280;3807;49.030;8.714;2023-04-10T03:42:59;99871.16;;;10.44;51.85
7532;BME280;3807;49.030;8.714;2023-04-10T03:45:24;99859.16;;;10.49;51.83
7532;BME280;3807;49.030;8.714;2023-04-10T03:47:51;99858.56;;;10.38;52.13
7532;BME280;3807;49.030;8.714;2023-04-10T03:50:16;99849.91;;;10.45;52.02
7532;BME280;3807;49.030;8.714;2023-04-10T03:52:42;99842.81;;;10.58;51.66
7532;BME280;3807;49.030;8.714;2023-04-10T03:55:07;99841.22;;;10.53;51.60
7532;BME280;3807;49.030;8.714;2023-04-10T03:57:33;99846.00;;;10.32;51.93
7532;BME280;3807;49.030;8.714;2023-04-10T03:59:58;99832.34;;;10.35;52.21
7532;BME280;3807;49.030;8.714;2023-04-10T04:02:24;99828.75;;;10.43;52.02
7532;BME280;3807;49.030;8.714;2023-04-10T04:04:49;99833.16;;;10.37;52.22
7532;BME280;3807;49.030;8.714;2023-04-10T04:07:14;99841.16;;;10.20;52.70
7532;BME280;3807;49.030;8.714;2023-04-10T04:09:40;99838.03;;;10.09;53.07
7532;BME280;3807;49.030;8.714;2023-04-10T04:12:06;99837.84;;;10.16;52.56
7532;BME280;3807;49.030;8.714;2023-04-10T04:14:32;99828.41;;;10.20;53.07
7532;BME280;3807;49.030;8.714;2023-04-10T04:16:57;99831.84;;;10.19;53.09
7532;BME280;3807;49.030;8.714;2023-04-10T04:19:23;99828.75;;;10.42;52.37
7532;BME280;3807;49.030;8.714;2023-04-10T04:21:48;99826.06;;;10.49;52.12
7532;BME280;3807;49.030;8.714;2023-04-10T04:24:14;99836.38;;;10.43;52.30
7532;BME280;3807;49.030;8.714;2023-04-10T04:26:39;99829.56;;;10.44;52.15
7532;BME280;3807;49.030;8.714;2023-04-10T04:29:04;99834.78;;;10.39;52.20
7532;BME280;3807;49.030;8.714;2023-04-10T04:31:30;99833.16;;;10.37;52.41
7532;BME280;3807;49.030;8.714;2023-04-10T04:33:59;99834.84;;;10.36;52.51
7532;BME280;3807;49.030;8.714;2023-04-10T04:36:26;99843.34;;;10.35;52.42
7532;BME280;3807;49.030;8.714;2023-04-10T04:38:52;99843.28;;;10.38;52.22
7532;BME280;3807;49.030;8.714;2023-04-10T04:41:17;99845.22;;;10.29;52.40
7532;BME280;3807;49.030;8.714;2023-04-10T04:43:43;99854.41;;;10.36;52.31
7532;BME280;3807;49.030;8.714;2023-04-10T04:46:08;99857.72;;;10.38;52.14
7532;BME280;3807;49.030;8.714;2023-04-10T04:48:34;99851.88;;;10.34;52.23
7532;BME280;3807;49.030;8.714;2023-04-10T04:51:00;99853.53;;;10.35;52.35
7532;BME280;3807;49.030;8.714;2023-04-10T04:53:25;99855.31;;;10.32;52.23
7532;BME280;3807;49.030;8.714;2023-04-10T04:55:50;99861.34;;;10.29;52.34
7532;BME280;3807;49.030;8.714;2023-04-10T04:58:16;99862.19;;;10.28;52.10
7532;BME280;3807;49.030;8.714;2023-04-10T05:00:41;99865.41;;;10.36;51.80
7532;BME280;3807;49.030;8.714;2023-04-10T05:03:06;99872.37;;;10.28;52.16
7532;BME280;3807;49.030;8.714;2023-04-10T05:05:32;99869.09;;;10.23;52.29
7532;BME280;3807;49.030;8.714;2023-04-10T05:07:57;99869.25;;;10.15;52.60
7532;BME280;3807;49.030;8.714;2023-04-10T05:10:23;99866.97;;;10.05;52.71
7532;BME280;3807;49.030;8.714;2023-04-10T05:12:48;99863.59;;;10.02;52.85
7532;BME280;3807;49.030;8.714;2023-04-10T05:15:13;99867.56;;;10.16;52.33
7532;BME280;3807;49.030;8.714;2023-04-10T05:17:39;99863.41;;;10.12;52.40
7532;BME280;3807;49.030;8.714;2023-04-10T05:20:05;99860.06;;;10.10;52.32
7532;BME280;3807;49.030;8.714;2023-04-10T05:22:30;99862.88;;;9.97;52.90
7532;BME280;3807;49.030;8.714;2023-04-10T05:24:56;99866.97;;;10.05;52.66
7532;BME280;3807;49.030;8.714;2023-04-10T05:27:22;99871.87;;;10.11;52.49
7532;BME280;3807;49.030;8.714;2023-04-10T05:29:47;99869.44;;;10.08;52.75
7532;BME280;3807;49.030;8.714;2023-04-10T05:32:13;99864.47;;;10.01;52.82
7532;BME280;3807;49.030;8.714;2023-04-10T05:34:38;99871.16;;;10.06;52.32
7532;BME280;3807;49.030;8.714;2023-04-10T05:37:04;99867.41;;;10.22;52.14
7532;BME280;3807;49.030;8.714;2023-04-10T05:39:30;99868.69;;;10.02;52.68
7532;BME280;3807;49.030;8.714;2023-04-10T05:41:55;99870.34;;;10.05;52.63
7532;BME280;3807;49.030;8.714;2023-04-10T05:44:22;99870.47;;;9.99;52.63
7532;BME280;3807;49.030;8.714;2023-04-10T05:46:47;99873.72;;;10.06;52.66
7532;BME280;3807;49.030;8.714;2023-04-10T05:49:13;99868.50;;;10.10;52.52
7532;BME280;3807;49.030;8.714;2023-04-10T05:51:38;99865.03;;;10.14;52.43
7532;BME280;3807;49.030;8.714;2023-04-10T05:54:04;99862.78;;;10.02;52.59
7532;BME280;3807;49.030;8.714;2023-04-10T05:56:29;99866.97;;;10.03;52.51
7532;BME280;3807;49.030;8.714;2023-04-10T05:58:54;99873.97;;;9.95;52.59
7532;BME280;3807;49.030;8.714;2023-04-10T06:01:20;99868.00;;;9.96;52.73
7532;BME280;3807;49.030;8.714;2023-04-10T06:03:45;99869.00;;;9.89;52.85
7532;BME280;3807;49.030;8.714;2023-04-10T06:06:11;99869.75;;;9.92;52.85
7532;BME280;3807;49.030;8.714;2023-04-10T06:08:36;99867.22;;;9.94;52.54
7532;BME280;3807;49.030;8.714;2023-04-10T06:11:02;99862.19;;;9.89;52.67
7532;BME280;3807;49.030;8.714;2023-04-10T06:13:27;99868.88;;;9.95;52.67
7532;BME280;3807;49.030;8.714;2023-04-10T06:15:53;99866.50;;;9.87;53.18
7532;BME280;3807;49.030;8.714;2023-04-10T06:18:18;99859.56;;;9.94;52.93
7532;BME280;3807;49.030;8.714;2023-04-10T06:20:43;99852.25;;;9.78;53.24
7532;BME280;3807;49.030;8.714;2023-04-10T06:23:09;99856.94;;;9.97;52.71
7532;BME280;3807;49.030;8.714;2023-04-10T06:25:36;99854.78;;;9.80;52.98
7532;BME280;3807;49.030;8.714;2023-04-10T06:28:01;99860.34;;;9.97;52.67
7532;BME280;3807;49.030;8.714;2023-04-10T06:30:26;99858.19;;;9.79;52.97
7532;BME280;3807;49.030;8.714;2023-04-10T06:32:52;99856.28;;;9.89;53.10
7532;BME280;3807;49.030;8.714;2023-04-10T06:35:17;99861.56;;;9.79;52.98
7532;BME280;3807;49.030;8.714;2023-04-10T06:37:43;99856.25;;;9.90;52.84
7532;BME280;3807;49.030;8.714;2023-04-10T06:40:10;99847.16;;;9.78;53.38
7532;BME280;3807;49.030;8.714;2023-04-10T06:42:36;99849.47;;;9.91;53.28
7532;BME280;3807;49.030;8.714;2023-04-10T06:45:02;99841.44;;;9.69;53.29
7532;BME280;3807;49.030;8.714;2023-04-10T06:47:28;99843.25;;;9.64;53.43
7532;BME280;3807;49.030;8.714;2023-04-10T06:49:53;99843.78;;;9.78;53.34
7532;BME280;3807;49.030;8.714;2023-04-10T06:52:19;99838.59;;;9.83;53.03
7532;BME280;3807;49.030;8.714;2023-04-10T06:54:44;99844.78;;;9.71;53.38
7532;BME280;3807;49.030;8.714;2023-04-10T06:57:10;99843.03;;;9.74;53.47
7532;BME280;3807;49.030;8.714;2023-04-10T06:59:35;99835.34;;;9.77;53.32
7532;BME280;3807;49.030;8.714;2023-04-10T07:02:02;99841.19;;;9.81;53.01
7532;BME280;3807;49.030;8.714;2023-04-10T07:04:28;99847.16;;;9.80;53.22
7532;BME280;3807;49.030;8.714;2023-04-10T07:06:53;99840.81;;;9.98;52.81
7532;BME280;3807;49.030;8.714;2023-04-10T07:09:18;99837.69;;;9.87;52.87
7532;BME280;3807;49.030;8.714;2023-04-10T07:11:44;99842.19;;;9.74;53.40
7532;BME280;3807;49.030;8.714;2023-04-10T07:14:10;99843.19;;;9.67;53.62
7532;BME280;3807;49.030;8.714;2023-04-10T07:16:35;99845.22;;;9.90;52.84
7532;BME280;3807;49.030;8.714;2023-04-10T07:19:01;99843.09;;;9.71;53.40
7532;BME280;3807;49.030;8.714;2023-04-10T07:21:26;99843.50;;;9.92;53.07
7532;BME280;3807;49.030;8.714;2023-04-10T07:23:52;99840.87;;;9.95;52.73
7532;BME280;3807;49.030;8.714;2023-04-10T07:26:17;99846.09;;;9.90;53.14
7532;BME280;3807;49.030;8.714;2023-04-10T07:28:43;99837.50;;;9.94;52.98
7532;BME280;3807;49.030;8.714;2023-04-10T07:31:09;99839.13;;;9.97;52.69
7532;BME280;3807;49.030;8.714;2023-04-10T07:33:36;99830.88;;;9.87;52.83
7532;BME280;3807;49.030;8.714;2023-04-10T07:36:01;99832.81;;;9.76;53.49
7532;BME280;3807;49.030;8.714;2023-04-10T07:38:27;99837.69;;;9.87;53.08
7532;BME280;3807;49.030;8.714;2023-04-10T07:40:56;99829.31;;;9.82;53.29
7532;BME280;3807;49.030;8.714;2023-04-10T07:43:22;99829.34;;;9.80;53.32
7532;BME280;3807;49.030;8.714;2023-04-10T07:45:48;99827.59;;;9.82;53.25
7532;BME280;3807;49.030;8.714;2023-04-10T07:48:13;99829.06;;;9.92;53.05
7532;BME280;3807;49.030;8.714;2023-04-10T07:50:39;99826.69;;;9.85;53.32
7532;BME280;3807;49.030;8.714;2023-04-10T07:53:04;99828.34;;;9.87;53.23
7532;BME280;3807;49.030;8.714;2023-04-10T07:55:37;99824.16;;;9.85;52.84
7532;BME280;3807;49.030;8.714;2023-04-10T07:58:03;99832.63;;;9.85;53.50
7532;BME280;3807;49.030;8.714;2023-04-10T08:00:28;99819.38;;;9.71;53.75
7532;BME280;3807;49.030;8.714;2023-04-10T08:02:53;99823.19;;;9.90;53.29
7532;BME280;3807;49.030;8.714;2023-04-10T08:05:19;99817.63;;;9.73;53.87
7532;BME280;3807;49.030;8.714;2023-04-10T08:07:45;99812.25;;;9.87;53.50
7532;BME280;3807;49.030;8.714;2023-04-10T08:10:11;99820.78;;;9.84;53.69
7532;BME280;3807;49.030;8.714;2023-04-10T08:12:36;99818.09;;;9.90;52.99
7532;BME280;3807;49.030;8.714;2023-04-10T08:15:02;99816.22;;;9.97;53.33
7532;BME280;3807;49.030;8.714;2023-04-10T08:17:27;99820.66;;;9.89;53.35
7532;BME280;3807;49.030;8.714;2023-04-10T08:19:52;99822.06;;;10.00;53.17
7532;BME280;3807;49.030;8.714;2023-04-10T08:22:18;99816.22;;;9.98;53.28
7532;BME280;3807;49.030;8.714;2023-04-10T08:24:43;99819.78;;;9.90;53.24
7532;BME280;3807;49.030;8.714;2023-04-10T08:27:09;99823.94;;;9.94;54.01
7532;BME280;3807;49.030;8.714;2023-04-10T08:29:34;99825.72;;;9.90;54.03
7532;BME280;3807;49.030;8.714;2023-04-10T08:32:00;99824.81;;;9.93;54.14
7532;BME280;3807;49.030;8.714;2023-04-10T08:34:26;99817.94;;;9.96;53.99
7532;BME280;3807;49.030;8.714;2023-04-10T08:36:52;99819.16;;;10.17;53.24
7532;BME280;3807;49.030;8.714;2023-04-10T08:39:18;99815.75;;;10.18;53.45
7532;BME280;3807;49.030;8.714;2023-04-10T08:41:43;99821.66;;;10.19;53.37
7532;BME280;3807;49.030;8.714;2023-04-10T08:44:09;99819.59;;;10.36;53.18
7532;BME280;3807;49.030;8.714;2023-04-10T08:46:35;99820.72;;;10.23;52.88
7532;BME280;3807;49.030;8.714;2023-04-10T08:49:09;99819.81;;;10.27;52.90
7532;BME280;3807;49.030;8.714;2023-04-10T08:51:42;99822.69;;;10.47;52.88
7532;BME280;3807;49.030;8.714;2023-04-10T08:54:20;99820.91;;;10.51;53.02
7532;BME280;3807;49.030;8.714;2023-04-10T08:56:49;99817.09;;;10.67;52.45
7532;BME280;3807;49.030;8.714;2023-04-10T08:59:16;99807.81;;;10.65;52.61
7532;BME280;3807;49.030;8.714;2023-04-10T09:01:41;99804.38;;;10.66;52.62
7532;BME280;3807;49.030;8.714;2023-04-10T09:04:06;99798.31;;;10.71;52.41
7532;BME280;3807;49.030;8.714;2023-04-10T09:06:32;99793.81;;;10.81;52.39
7532;BME280;3807;49.030;8.714;2023-04-10T09:08:57;99786.88;;;10.86;52.33
7532;BME280;3807;49.030;8.714;2023-04-10T09:14:42;99779.81;;;10.96;52.07
7532;BME280;3807;49.030;8.714;2023-04-10T09:19:42;99771.31;;;11.27;51.60
7532;BME280;3807;49.030;8.714;2023-04-10T09:22:07;99769.69;;;11.24;51.75
7532;BME280;3807;49.030;8.714;2023-04-10T09:24:37;99772.41;;;11.18;52.04
7532;BME280;3807;49.030;8.714;2023-04-10T09:27:04;99761.31;;;11.19;51.85
7532;BME280;3807;49.030;8.714;2023-04-10T09:29:46;99758.03;;;11.43;51.14
7532;BME280;3807;49.030;8.714;2023-04-10T09:35:03;99753.81;;;11.71;50.73
7532;BME280;3807;49.030;8.714;2023-04-10T09:37:34;99744.56;;;11.68;50.91
7532;BME280;3807;49.030;8.714;2023-04-10T09:40:00;99739.50;;;11.66;50.74
7532;BME280;3807;49.030;8.714;2023-04-10T09:42:34;99741.41;;;11.88;50.46
7532;BME280;3807;49.030;8.714;2023-04-10T09:45:02;99746.16;;;11.71;50.72
7532;BME280;3807;49.030;8.714;2023-04-10T09:47:28;99738.12;;;11.83;50.40
7532;BME280;3807;49.030;8.714;2023-04-10T09:49:55;99729.84;;;12.03;49.58
7532;BME280;3807;49.030;8.714;2023-04-10T09:52:25;99722.88;;;12.08;49.19
7532;BME280;3807;49.030;8.714;2023-04-10T09:55:02;99720.78;;;12.21;48.70
7532;BME280;3807;49.030;8.714;2023-04-10T09:57:33;99706.19;;;12.24;48.66
7532;BME280;3807;49.030;8.714;2023-04-10T10:00:04;99705.56;;;12.41;48.71
7532;BME280;3807;49.030;8.714;2023-04-10T10:02:34;99706.81;;;12.54;48.58
7532;BME280;3807;49.030;8.714;2023-04-10T10:05:02;99701.38;;;12.63;48.40
7532;BME280;3807;49.030;8.714;2023-04-10T10:07:28;99693.44;;;12.71;48.35
7532;BME280;3807;49.030;8.714;2023-04-10T10:09:54;99690.72;;;12.76;48.29
7532;BME280;3807;49.030;8.714;2023-04-10T10:17:53;99681.78;;;13.33;46.10
7532;BME280;3807;49.030;8.714;2023-04-10T10:20:24;99677.28;;;13.40;46.16
7532;BME280;3807;49.030;8.714;2023-04-10T10:22:51;99667.28;;;13.33;46.07
7532;BME280;3807;49.030;8.714;2023-04-10T10:25:17;99663.69;;;13.38;45.96
7532;BME280;3807;49.030;8.714;2023-04-10T10:27:45;99663.66;;;13.59;45.12
7532;BME280;3807;49.030;8.714;2023-04-10T10:30:12;99662.59;;;13.65;44.76
7532;BME280;3807;49.030;8.714;2023-04-10T10:32:38;99663.66;;;13.81;44.72
7532;BME280;3807;49.030;8.714;2023-04-10T10:35:04;99658.37;;;13.64;45.09
7532;BME280;3807;49.030;8.714;2023-04-10T10:37:33;99645.53;;;13.86;44.53
7532;BME280;3807;49.030;8.714;2023-04-10T10:40:11;99651.97;;;14.15;43.32
7532;BME280;3807;49.030;8.714;2023-04-10T10:48:13;99656.16;;;14.76;43.45
7532;BME280;3807;49.030;8.714;2023-04-10T10:50:52;99652.47;;;14.82;42.49
7532;BME280;3807;49.030;8.714;2023-04-10T10:53:41;99651.72;;;14.98;42.56
7532;BME280;3807;49.030;8.714;2023-04-10T10:58:49;99642.44;;;14.96;43.33
7532;BME280;3807;49.030;8.714;2023-04-10T11:01:16;99639.56;;;15.02;43.66
7532;BME280;3807;49.030;8.714;2023-04-10T11:03:42;99633.78;;;15.52;41.06
7532;BME280;3807;49.030;8.714;2023-04-10T11:06:17;99630.75;;;15.61;41.90
7532;BME280;3807;49.030;8.714;2023-04-10T11:08:47;99628.00;;;15.66;41.91
7532;BME280;3807;49.030;8.714;2023-04-10T11:21:25;99617.88;;;16.13;41.60
7532;BME280;3807;49.030;8.714;2023-04-10T11:29:00;99605.19;;;16.59;40.59
7532;BME280;3807;49.030;8.714;2023-04-10T11:31:26;99607.97;;;17.34;35.90
7532;BME280;3807;49.030;8.714;2023-04-10T11:34:07;99595.78;;;17.22;39.50
7532;BME280;3807;49.030;8.714;2023-04-10T11:36:37;99592.06;;;17.57;37.57
7532;BME280;3807;49.030;8.714;2023-04-10T11:41:35;99585.22;;;17.56;38.84
7532;BME280;3807;49.030;8.714;2023-04-10T11:44:05;99570.88;;;17.52;38.86
7532;BME280;3807;49.030;8.714;2023-04-10T11:46:35;99570.81;;;17.68;37.07
7532;BME280;3807;49.030;8.714;2023-04-10T11:49:03;99566.06;;;18.19;33.57
7532;BME280;3807;49.030;8.714;2023-04-10T11:51:29;99564.22;;;18.21;35.46
7532;BME280;3807;49.030;8.714;2023-04-10T11:56:41;99559.03;;;18.36;36.05
7532;BME280;3807;49.030;8.714;2023-04-10T11:59:08;99552.66;;;18.55;34.36
7532;BME280;3807;49.030;8.714;2023-04-10T12:01:43;99549.44;;;18.93;33.32
7532;BME280;3807;49.030;8.714;2023-04-10T12:04:20;99544.81;;;19.11;32.34
7532;BME280;3807;49.030;8.714;2023-04-10T12:06:50;99545.66;;;19.12;35.66
7532;BME280;3807;49.030;8.714;2023-04-10T12:09:18;99542.78;;;18.89;36.89
7532;BME280;3807;49.030;8.714;2023-04-10T12:12:00;99543.25;;;19.09;35.29
7532;BME280;3807;49.030;8.714;2023-04-10T12:16:56;99535.28;;;18.99;36.98
7532;BME280;3807;49.030;8.714;2023-04-10T12:19:22;99524.50;;;19.19;34.47
7532;BME280;3807;49.030;8.714;2023-04-10T12:21:48;99524.31;;;19.61;33.52
7532;BME280;3807;49.030;8.714;2023-04-10T12:24:40;99516.06;;;19.81;33.95
7532;BME280;3807;49.030;8.714;2023-04-10T12:27:08;99524.25;;;19.75;34.64
7532;BME280;3807;49.030;8.714;2023-04-10T12:29:33;99514.31;;;19.56;34.71
7532;BME280;3807;49.030;8.714;2023-04-10T12:32:07;99514.81;;;19.61;34.35
7532;BME280;3807;49.030;8.714;2023-04-10T12:34:32;99500.44;;;19.83;34.04
7532;BME280;3807;49.030;8.714;2023-04-10T12:36:58;99509.44;;;19.90;33.41
7532;BME280;3807;49.030;8.714;2023-04-10T12:39:23;99504.66;;;20.09;32.86
7532;BME280;3807;49.030;8.714;2023-04-10T12:41:49;99497.56;;;20.24;35.31
7532;BME280;3807;49.030;8.714;2023-04-10T12:44:15;99494.00;;;20.38;34.60
7532;BME280;3807;49.030;8.714;2023-04-10T12:46:42;99491.34;;;20.27;33.63
7532;BME280;3807;49.030;8.714;2023-04-10T12:49:10;99488.28;;;20.45;31.06
7532;BME280;3807;49.030;8.714;2023-04-10T12:54:08;99480.41;;;20.71;30.91
7532;BME280;3807;49.030;8.714;2023-04-10T12:56:43;99481.13;;;20.73;34.45
7532;BME280;3807;49.030;8.714;2023-04-10T12:59:09;99477.91;;;20.93;33.16
7532;BME280;3807;49.030;8.714;2023-04-10T13:01:37;99472.72;;;20.82;32.30
7532;BME280;3807;49.030;8.714;2023-04-10T13:04:02;99465.94;;;21.04;32.60
7532;BME280;3807;49.030;8.714;2023-04-10T13:06:28;99459.59;;;21.08;32.26
7532;BME280;3807;49.030;8.714;2023-04-10T13:08:53;99455.13;;;21.10;33.47
7532;BME280;3807;49.030;8.714;2023-04-10T13:11:20;99459.37;;;21.22;32.62
7532;BME280;3807;49.030;8.714;2023-04-10T13:13:47;99465.59;;;21.20;32.23
7532;BME280;3807;49.030;8.714;2023-04-10T13:16:12;99466.41;;;21.09;30.49
7532;BME280;3807;49.030;8.714;2023-04-10T13:18:38;99454.50;;;21.42;30.84
7532;BME280;3807;49.030;8.714;2023-04-10T13:21:03;99457.31;;;21.61;31.30
7532;BME280;3807;49.030;8.714;2023-04-10T13:23:29;99450.72;;;21.79;30.01
7532;BME280;3807;49.030;8.714;2023-04-10T13:25:54;99452.13;;;21.61;31.84
7532;BME280;3807;49.030;8.714;2023-04-10T13:28:21;99446.19;;;21.25;26.86
7532;BME280;3807;49.030;8.714;2023-04-10T13:30:46;99443.75;;;21.46;28.98
7532;BME280;3807;49.030;8.714;2023-04-10T13:33:12;99447.44;;;21.55;29.62
7532;BME280;3807;49.030;8.714;2023-04-10T13:35:37;99432.66;;;21.89;32.64
7532;BME280;3807;49.030;8.714;2023-04-10T13:38:04;99430.56;;;21.83;31.64
7532;BME280;3807;49.030;8.714;2023-04-10T13:40:30;99430.28;;;21.86;32.36
7532;BME280;3807;49.030;8.714;2023-04-10T13:42:56;99420.50;;;22.01;29.89
7532;BME280;3807;49.030;8.714;2023-04-10T13:45:21;99419.94;;;21.75;31.23
7532;BME280;3807;49.030;8.714;2023-04-10T13:47:47;99409.19;;;22.02;31.35
7532;BME280;3807;49.030;8.714;2023-04-10T13:50:12;99407.25;;;22.26;32.89
7532;BME280;3807;49.030;8.714;2023-04-10T13:52:38;99400.50;;;21.80;33.03
7532;BME280;3807;49.030;8.714;2023-04-10T13:55:04;99404.38;;;21.97;32.71
7532;BME280;3807;49.030;8.714;2023-04-10T13:57:29;99393.94;;;22.08;32.15
7532;BME280;3807;49.030;8.714;2023-04-10T13:59:55;99395.38;;;22.01;31.16
7532;BME280;3807;49.030;8.714;2023-04-10T14:02:20;99386.44;;;21.94;30.93
7532;BME280;3807;49.030;8.714;2023-04-10T14:04:45;99389.31;;;22.23;31.09
7532;BME280;3807;49.030;8.714;2023-04-10T14:07:11;99384.34;;;22.52;28.24
7532;BME280;3807;49.030;8.714;2023-04-10T14:09:37;99381.06;;;22.50;29.09
7532;BME280;3807;49.030;8.714;2023-04-10T14:12:03;99380.56;;;22.56;29.82
7532;BME280;3807;49.030;8.714;2023-04-10T14:14:28;99372.91;;;22.55;31.94
7532;BME280;3807;49.030;8.714;2023-04-10T14:16:53;99371.69;;;22.59;30.33
7532;BME280;3807;49.030;8.714;2023-04-10T14:19:19;99362.41;;;22.56;31.56